Time,TemperatureF,DewpointF,PressureIn,WindDirection,WindDirectionDegrees,WindSpeedMPH,WindSpeedGustMPH,Humidity,HourlyPrecipIn,Conditions,Clouds,dailyrainin,SolarRadiationWatts/m^2,SoftwareType,DateUTC
2013-03-31 00:02:00,54.0,32.0,-100.00,South,188,18.0,24.0,43,0.00,,,0.00,0.000000,,2013-03-31 07:02:00,
2013-03-31 00:12:00,54.0,32.0,-100.00,South,188,18.0,24.0,43,0.00,,,0.00,0.000000,,2013-03-31 07:12:00,
2013-03-31 00:22:00,54.0,32.0,-100.00,South,188,18.0,24.0,43,0.00,,,0.00,0.000000,,2013-03-31 07:22:00,
2013-03-31 00:53:00,54.0,34.0,-100.00,SSW,199,12.0,22.0,47,0.00,,,0.00,0.000000,,2013-03-31 07:53:00,
2013-03-31 01:02:00,54.0,34.0,-100.00,SSW,199,12.0,22.0,47,0.00,,,0.00,0.000000,,2013-03-31 08:02:00,
2013-03-31 01:12:00,54.0,34.0,-100.00,SSW,199,12.0,22.0,47,0.00,,,0.00,0.000000,,2013-03-31 08:12:00,
2013-03-31 01:21:00,54.0,34.0,-100.00,SSW,199,12.0,22.0,47,0.00,,,0.00,0.000000,,2013-03-31 08:21:00,
2013-03-31 01:52:00,54.0,35.0,-100.00,SSW,210,17.0,26.0,48,0.00,,,0.00,0.000000,,2013-03-31 08:52:00,
2013-03-31 02:01:00,54.0,35.0,-100.00,SSW,210,17.0,26.0,48,0.00,,,0.00,0.000000,,2013-03-31 09:01:00,
2013-03-31 02:12:00,54.0,35.0,-100.00,SSW,210,17.0,26.0,48,0.00,,,0.00,0.000000,,2013-03-31 09:12:00,
2013-03-31 02:21:00,54.0,35.0,-100.00,SSW,210,17.0,26.0,48,0.00,,,0.00,0.000000,,2013-03-31 09:21:00,
2013-03-31 02:53:00,52.0,35.0,-100.00,SSW,211,16.0,27.0,52,0.00,,,0.00,0.000000,,2013-03-31 09:53:00,
2013-03-31 03:03:00,52.0,35.0,-100.00,SSW,211,16.0,27.0,52,0.00,,,0.00,0.000000,,2013-03-31 10:03:00,
2013-03-31 03:12:00,52.0,35.0,-100.00,SSW,211,16.0,27.0,52,0.00,,,0.00,0.000000,,2013-03-31 10:12:00,
2013-03-31 03:23:00,52.0,35.0,-100.00,SSW,211,16.0,27.0,52,0.00,,,0.00,0.000000,,2013-03-31 10:23:00,
2013-03-31 03:53:00,49.0,33.0,-100.00,SSW,211,16.0,24.0,54,0.00,,,0.00,0.000000,,2013-03-31 10:53:00,
2013-03-31 04:02:00,49.0,33.0,-100.00,SSW,211,16.0,24.0,54,0.00,,,0.00,0.000000,,2013-03-31 11:02:00,
2013-03-31 04:12:00,49.0,33.0,-100.00,SSW,211,16.0,24.0,54,0.00,,,0.00,0.000000,,2013-03-31 11:12:00,
2013-03-31 04:21:00,49.0,33.0,-100.00,SSW,211,16.0,24.0,54,0.00,,,0.00,0.000000,,2013-03-31 11:21:00,
2013-03-31 04:52:00,50.0,34.0,-100.00,SSW,211,15.0,23.0,55,0.00,,,0.00,0.000000,,2013-03-31 11:52:00,
2013-03-31 05:02:00,50.0,34.0,-100.00,SSW,211,15.0,23.0,55,0.00,,,0.00,0.000000,,2013-03-31 12:02:00,
2013-03-31 05:12:00,50.0,34.0,-100.00,SSW,211,15.0,23.0,55,0.00,,,0.00,0.000000,,2013-03-31 12:12:00,
2013-03-31 05:21:00,50.0,34.0,-100.00,SSW,211,15.0,23.0,55,0.00,,,0.00,0.000000,,2013-03-31 12:21:00,
2013-03-31 05:53:00,48.0,34.0,-100.00,SSW,201,13.0,20.0,58,0.00,,,0.00,0.000000,,2013-03-31 12:53:00,
2013-03-31 06:02:00,48.0,34.0,-100.00,SSW,201,13.0,20.0,58,0.00,,,0.00,0.000000,,2013-03-31 13:02:00,
2013-03-31 06:12:00,48.0,34.0,-100.00,SSW,201,13.0,20.0,58,0.00,,,0.00,0.000000,,2013-03-31 13:12:00,
2013-03-31 06:22:00,48.0,34.0,-100.00,SSW,201,13.0,20.0,58,0.00,,,0.00,0.000000,,2013-03-31 13:22:00,
2013-03-31 06:53:00,45.0,33.0,-100.00,SSW,192,14.0,22.0,63,0.00,,,0.00,0.000000,,2013-03-31 13:53:00,
2013-03-31 07:02:00,45.0,33.0,-100.00,SSW,192,14.0,22.0,63,0.00,,,0.00,0.000000,,2013-03-31 14:02:00,
2013-03-31 07:12:00,45.0,33.0,-100.00,SSW,192,14.0,22.0,63,0.00,,,0.00,0.000000,,2013-03-31 14:12:00,
2013-03-31 07:22:00,45.0,33.0,-100.00,SSW,192,14.0,22.0,63,0.00,,,0.00,0.000000,,2013-03-31 14:22:00,
2013-03-31 07:52:00,46.0,35.0,-100.00,SSW,204,19.0,28.0,66,0.00,,,0.00,40.000000,,2013-03-31 14:52:00,
2013-03-31 08:02:00,46.0,35.0,-100.00,SSW,204,19.0,28.0,66,0.00,,,0.00,40.000000,,2013-03-31 15:02:00,
2013-03-31 08:12:00,46.0,35.0,-100.00,SSW,204,19.0,28.0,66,0.00,,,0.00,40.000000,,2013-03-31 15:12:00,
2013-03-31 08:21:00,46.0,35.0,-100.00,SSW,204,19.0,28.0,66,0.00,,,0.00,40.000000,,2013-03-31 15:21:00,
2013-03-31 08:54:00,48.0,38.0,-100.00,SSW,196,15.0,24.0,68,0.00,,,0.00,264.000000,,2013-03-31 15:54:00,
2013-03-31 09:03:00,48.0,38.0,-100.00,SSW,196,15.0,24.0,68,0.00,,,0.00,264.000000,,2013-03-31 16:03:00,
2013-03-31 09:13:00,48.0,38.0,-100.00,SSW,196,15.0,24.0,68,0.00,,,0.00,264.000000,,2013-03-31 16:13:00,
2013-03-31 09:22:00,48.0,38.0,-100.00,SSW,196,15.0,24.0,68,0.00,,,0.00,264.000000,,2013-03-31 16:22:00,
2013-03-31 09:53:00,52.0,37.0,-100.00,SSW,194,15.0,26.0,56,0.00,,,0.00,519.000000,,2013-03-31 16:53:00,
2013-03-31 10:02:00,52.0,37.0,-100.00,SSW,194,15.0,26.0,56,0.00,,,0.00,519.000000,,2013-03-31 17:02:00,
2013-03-31 10:12:00,52.0,37.0,-100.00,SSW,194,15.0,26.0,56,0.00,,,0.00,519.000000,,2013-03-31 17:12:00,
2013-03-31 10:22:00,52.0,37.0,-100.00,SSW,194,15.0,26.0,56,0.00,,,0.00,519.000000,,2013-03-31 17:22:00,
2013-03-31 10:52:00,56.0,32.0,-100.00,SSW,205,18.0,28.0,40,0.00,,,0.00,761.000000,,2013-03-31 17:52:00,
2013-03-31 11:02:00,56.0,32.0,-100.00,SSW,205,18.0,28.0,40,0.00,,,0.00,761.000000,,2013-03-31 18:02:00,
2013-03-31 11:12:00,56.0,32.0,-100.00,SSW,205,18.0,28.0,40,0.00,,,0.00,761.000000,,2013-03-31 18:12:00,
2013-03-31 11:22:00,56.0,32.0,-100.00,SSW,205,18.0,28.0,40,0.00,,,0.00,761.000000,,2013-03-31 18:22:00,
2013-03-31 11:53:00,58.0,27.0,-100.00,SSW,206,20.0,30.0,30,0.00,,,0.00,952.000000,,2013-03-31 18:53:00,
2013-03-31 12:02:00,58.0,27.0,-100.00,SSW,206,20.0,30.0,30,0.00,,,0.00,952.000000,,2013-03-31 19:02:00,
2013-03-31 12:12:00,58.0,27.0,-100.00,SSW,206,20.0,30.0,30,0.00,,,0.00,952.000000,,2013-03-31 19:12:00,
2013-03-31 12:22:00,58.0,27.0,-100.00,SSW,206,20.0,30.0,30,0.00,,,0.00,952.000000,,2013-03-31 19:22:00,
2013-03-31 12:54:00,61.0,27.0,-100.00,SSW,200,15.0,27.0,27,0.00,,,0.00,1077.000000,,2013-03-31 19:54:00,
2013-03-31 13:02:00,61.0,27.0,-100.00,SSW,200,15.0,27.0,27,0.00,,,0.00,1077.000000,,2013-03-31 20:02:00,
2013-03-31 13:12:00,61.0,27.0,-100.00,SSW,200,15.0,27.0,27,0.00,,,0.00,1077.000000,,2013-03-31 20:12:00,
2013-03-31 13:22:00,61.0,27.0,-100.00,SSW,200,15.0,27.0,27,0.00,,,0.00,1077.000000,,2013-03-31 20:22:00,
2013-03-31 13:53:00,60.0,24.0,-100.00,SW,224,13.0,27.0,25,0.00,,,0.00,1038.000000,,2013-03-31 20:53:00,
2013-03-31 14:02:00,60.0,24.0,-100.00,SW,224,13.0,27.0,25,0.00,,,0.00,1038.000000,,2013-03-31 21:02:00,
2013-03-31 14:12:00,60.0,24.0,-100.00,SW,224,13.0,27.0,25,0.00,,,0.00,1038.000000,,2013-03-31 21:12:00,
2013-03-31 14:21:00,60.0,24.0,-100.00,SW,224,13.0,27.0,25,0.00,,,0.00,1038.000000,,2013-03-31 21:21:00,
2013-03-31 14:53:00,62.0,26.0,-100.00,SSW,209,18.0,31.0,25,0.00,,,0.00,936.000000,,2013-03-31 21:53:00,
2013-03-31 15:03:00,62.0,26.0,-100.00,SSW,209,18.0,31.0,25,0.00,,,0.00,936.000000,,2013-03-31 22:03:00,
2013-03-31 15:13:00,62.0,26.0,-100.00,SSW,209,18.0,31.0,25,0.00,,,0.00,936.000000,,2013-03-31 22:13:00,
2013-03-31 15:23:00,62.0,26.0,-100.00,SSW,209,18.0,31.0,25,0.00,,,0.00,936.000000,,2013-03-31 22:23:00,
2013-03-31 15:53:00,60.0,30.0,-100.00,SSW,203,20.0,35.0,32,0.00,,,0.00,928.000000,,2013-03-31 22:53:00,
2013-03-31 16:02:00,60.0,30.0,-100.00,SSW,203,20.0,35.0,32,0.00,,,0.00,928.000000,,2013-03-31 23:02:00,
2013-03-31 16:12:00,60.0,30.0,-100.00,SSW,203,20.0,35.0,32,0.00,,,0.00,928.000000,,2013-03-31 23:12:00,
2013-03-31 16:21:00,60.0,30.0,-100.00,SSW,203,20.0,35.0,32,0.00,,,0.00,928.000000,,2013-03-31 23:21:00,
2013-03-31 16:53:00,55.0,37.0,-100.00,SSW,211,27.0,39.0,50,0.00,,,0.00,487.000000,,2013-03-31 23:53:00,
2013-03-31 17:02:00,55.0,37.0,-100.00,SSW,211,27.0,39.0,50,0.00,,,0.00,487.000000,,2013-04-01 00:02:00,
2013-03-31 17:12:00,55.0,37.0,-100.00,SSW,211,27.0,39.0,50,0.00,,,0.00,487.000000,,2013-04-01 00:12:00,
2013-03-31 17:21:00,55.0,37.0,-100.00,SSW,211,27.0,39.0,50,0.00,,,0.00,487.000000,,2013-04-01 00:21:00,
2013-03-31 17:53:00,54.0,41.0,-100.00,SSW,206,28.0,42.0,62,0.00,,,0.00,218.000000,,2013-04-01 00:53:00,
2013-03-31 18:02:00,54.0,41.0,-100.00,SSW,206,28.0,42.0,62,0.00,,,0.00,218.000000,,2013-04-01 01:02:00,
2013-03-31 18:12:00,54.0,41.0,-100.00,SSW,206,28.0,42.0,62,0.00,,,0.00,218.000000,,2013-04-01 01:12:00,
2013-03-31 18:21:00,54.0,41.0,-100.00,SSW,206,28.0,42.0,62,0.00,,,0.00,218.000000,,2013-04-01 01:21:00,
2013-03-31 18:53:00,52.0,43.0,-100.00,SSW,201,20.0,36.0,70,0.00,,,0.00,229.000000,,2013-04-01 01:53:00,
2013-03-31 19:02:00,52.0,43.0,-100.00,SSW,201,20.0,36.0,70,0.00,,,0.00,229.000000,,2013-04-01 02:02:00,
2013-03-31 19:12:00,52.0,43.0,-100.00,SSW,201,20.0,36.0,70,0.00,,,0.00,229.000000,,2013-04-01 02:12:00,
2013-03-31 19:22:00,52.0,43.0,-100.00,SSW,201,20.0,36.0,70,0.00,,,0.00,229.000000,,2013-04-01 02:22:00,
2013-03-31 19:53:00,48.0,42.0,-100.00,SSW,210,19.0,30.0,80,0.00,,,0.00,12.000000,,2013-04-01 02:53:00,
2013-03-31 20:02:00,48.0,42.0,-100.00,SSW,210,19.0,30.0,80,0.00,,,0.00,12.000000,,2013-04-01 03:02:00,
2013-03-31 20:12:00,48.0,42.0,-100.00,SSW,210,19.0,30.0,80,0.00,,,0.00,12.000000,,2013-04-01 03:12:00,
2013-03-31 20:22:00,48.0,42.0,-100.00,SSW,210,19.0,30.0,80,0.00,,,0.00,12.000000,,2013-04-01 03:22:00,
2013-03-31 20:53:00,47.0,43.0,-100.00,SSW,204,19.0,31.0,85,0.00,,,0.00,0.000000,,2013-04-01 03:53:00,
2013-03-31 21:02:00,47.0,43.0,-100.00,SSW,204,19.0,31.0,85,0.00,,,0.00,0.000000,,2013-04-01 04:02:00,
2013-03-31 21:13:00,47.0,43.0,-100.00,SSW,204,19.0,31.0,85,0.00,,,0.00,0.000000,,2013-04-01 04:13:00,
2013-03-31 21:23:00,47.0,43.0,-100.00,SSW,204,19.0,31.0,85,0.00,,,0.00,0.000000,,2013-04-01 04:23:00,
2013-03-31 21:53:00,48.0,43.0,-100.00,SW,219,18.0,25.0,83,0.00,,,0.00,0.000000,,2013-04-01 04:53:00,
2013-03-31 22:02:00,48.0,43.0,-100.00,SW,219,18.0,25.0,83,0.00,,,0.00,0.000000,,2013-04-01 05:02:00,
2013-03-31 22:12:00,48.0,43.0,-100.00,SW,219,18.0,25.0,83,0.00,,,0.00,0.000000,,2013-04-01 05:12:00,
2013-03-31 22:22:00,48.0,43.0,-100.00,SW,219,18.0,25.0,83,0.00,,,0.00,0.000000,,2013-04-01 05:22:00,
2013-03-31 22:53:00,48.0,40.0,-100.00,SW,229,15.0,26.0,73,0.00,,,0.00,0.000000,,2013-04-01 05:53:00,
2013-03-31 23:02:00,48.0,40.0,-100.00,SW,229,15.0,26.0,73,0.00,,,0.00,0.000000,,2013-04-01 06:02:00,
2013-03-31 23:12:00,48.0,40.0,-100.00,SW,229,15.0,26.0,73,0.00,,,0.00,0.000000,,2013-04-01 06:12:00,
2013-03-31 23:22:00,48.0,40.0,-100.00,SW,229,15.0,26.0,73,0.00,,,0.00,0.000000,,2013-04-01 06:22:00,
2013-03-31 23:52:00,48.0,37.0,-100.00,NNE,15,8.0,25.0,65,0.00,,,0.00,0.000000,,2013-04-01 06:52:00,